AirNav   Air Wisconsin Up To $57,000 Bonus
 
 1015 users online  

F92 Kingfisher Airport
Kingfisher, Oklahoma, USA

GOING TO KINGFISHER?


FAA INFORMATION EFFECTIVE 26 JANUARY 2023

Location

FAA Identifier: F92
Lat/Long: 35-52-36.0200N 097-57-10.5750W
35-52.600333N 097-57.176250W
35.8766722,-97.9529375
(estimated)
Elevation: 1072 ft. / 327 m (estimated)
Variation: 07E (1985)
From city: 1 mile NW of KINGFISHER, OK
Time zone: UTC -6 (UTC -5 during Daylight Saving Time)
Zip code: 73750

Airport Operations

Airport use: Open to the public
Activation date: 10/1945
Control tower: no
ARTCC: FORT WORTH CENTER
FSS: MC ALESTER FLIGHT SERVICE STATION
NOTAMs facility: MLC (NOTAM-D service available)
Attendance: UNATNDD
Wind indicator: lighted
Segmented circle: no
Lights: DUSK-DAWN; MIRL RWY 18/36 PRESET LOW INTST; INCR INTST ACTVT - CTAF.

Airport Communications

CTAF: 122.9

Nearby radio navigation aids

VOR radial/distance  VOR name  Freq  Var
PWAr316/25.4WILEY POST VOR/DME113.4008E
ENDr178/28.1VANCE VORTAC115.4005E
ODGr187/30.9WOODRING VOR/DME109.0008E
IRWr325/35.3WILL ROGERS VORTAC114.1007E

Airport Services

Fuel available: 100LL
100LL:AVBL WITH CREDIT CARD.
Airframe service: NONE
Powerplant service: NONE
Bottled oxygen: NONE
Bulk oxygen: NONE

Runway Information

Runway 18/36

Dimensions: 2800 x 60 ft. / 853 x 18 m
Surface: concrete, in good condition
Weight bearing capacity: 
PCN 4 /R/D/Z/U
Runway edge lights: medium intensity
RUNWAY 18  RUNWAY 36
Latitude: 35-52.831000N35-52.369500N
Longitude: 097-57.177333W097-57.175167W
Elevation: 1072.0 ft.1053.0 ft.
Traffic pattern: leftright
Runway heading: 173 magnetic, 180 true353 magnetic, 360 true
Markings: basic, in good conditionbasic, in good condition
Obstructions: 28 ft. trees, 540 ft. from runway, 50 ft. right of centerline, 12:1 slope to clearnone

Airport Ownership and Management from official FAA records

Ownership: Publicly-owned
Owner: CITY OF KINGFISHER
301 N. MAIN STREET
KINGFISHER, OK 73750
Phone 405-375-3705
Manager: BILL REITZ
301 N. MAIN STREET
KINGFISHER, OK 73750
Phone 405-375-4886

Airport Operational Statistics

Aircraft based on the field: 13
Single engine airplanes: 13
    
Aircraft operations: avg 77/week *
62% transient general aviation
37% local general aviation
<1% military
* for 12-month period ending 09 February 2018

Additional Remarks

FOR CD CTC OKE CITY APCH AT 405-681-5683.
HELI AUTO ROT PRACTICE ON PAVEMENT NA.

Instrument Procedures

There are no published instrument procedures at F92.

Some nearby airports with instrument procedures:

KHSD - Sundance Airport (20 nm SE)
KJWG - Watonga Regional Airport (23 nm W)
KRCE - Clarence E Page Municipal Airport (24 nm S)
KRQO - El Reno Regional Airport (24 nm S)
KPWA - Wiley Post Airport (25 nm SE)
 
Loc | Ops | Rwys | IFR | FBO | Links
Com | Nav | Svcs | Stats | Notes
Area around F92 (Kingfisher Airport)
 
Road maps at: MapQuest Bing Google
 
Aerial photo
No photo
 
Sectional chart

 
Airport distance calculator
Flying to Kingfisher Airport? Find the distance to fly.

From to F92

Sunrise and sunset
Times for 05-Feb-2023
 Local
(UTC-6)
 Zulu
(UTC)
Morning civil twilight07:0313:03
Sunrise07:3013:30
Sunset18:0200:02
Evening civil twilight18:2900:29

Current date and time
Zulu (UTC)  06-Feb-2023 01:20:11
Local (UTC-6)  05-Feb-2023 19:20:11
 
METAR
KHSD 
20nm SE 
060050Z AUTO 12004KT 10SM CLR 15/00 A3003 RMK A01
KJWG 
23nm W 
060055Z AUTO 10005KT 10SM CLR 10/M01 A3005 RMK AO2 T01041006
KRCE 
24nm S 
060055Z AUTO 15008KT 10SM CLR 12/04 A3003 RMK AO2
KRQO 
24nm S 
060055Z AUTO 14009KT 10/04 A3004 RMK AO2 PWINO T01000040
KPWA 
25nm SE 
060053Z 14007KT 10SM CLR 14/01 A3003 RMK AO2 SLP173 T01390011
KEND 
26nm N 
060055Z AUTO 13005KT 10SM CLR 09/M03 A3001 RMK AO2 SLP172 T00881028 $
KGOK 
27nm E 
060053Z AUTO 13004KT 10SM CLR 13/M01 A3003 RMK AO2 SLP176 T01281011 $
KWDG 
31nm N 
060055Z 14003KT 10SM FEW200 08/00 A3004
KOKC 
34nm SE 
060052Z 14009KT 10SM FEW250 11/03 A3004 RMK AO2 SLP174 T01060033
KTIK 
40nm SE 
060055Z AUTO 15004KT 10SM CLR 14/03 A3001 RMK AO2 SLP171 T01360028 $
TAF
KEND 
26nm N 
052350Z 0523/0621 11008KT 9999 SCT250 QNH3000INS BECMG 0602/0603 15010KT 9999 SCT020 QNH3002INS BECMG 0608/0609 15012KT 9000 BR OVC005 QNH2988INS BECMG 0614/0615 17012G18KT 9999 NSW SCT007 QNH2987INS BECMG 0617/0618 20015G25KT 9999 FEW200 QNH2977INS TX14/0523Z TN05/0607Z LAST NO AMDS AFT 0523 NEXT 0610
NOTAMs
Click for the latest NOTAMs
NOTAMs are issued by the DoD/FAA and will open in a separate window not controlled by AirNav.

 

 
 

FBO, Fuel Providers, and Aircraft Ground Support

  
 Business Name 
 
 Contact 
 
 Services / Description 
 
Fuel Prices
 
Comments
  
City of Kingfisher (FBO) 405-375-4901
405-368-9491
[web site]
[email]
Airport management, Aviation fuel, Aircraft parking (ramp or tiedown), Hangar leasing / sales

More info about City of Kingfisher (FBO)
independent
100LL
SS $5.79 
 Updated 26-Jan-2023
 
   2 read write
SS=Self service
Update Fuel Prices
 

Would you like to see your business listed on this page?

 If your business provides an interesting product or service to pilots, flight crews, aircraft, or users of the Kingfisher Airport, you should consider listing it here.  To start the listing process, click on the button below
 
Add a business
 

Other Pages about Kingfisher Airport

www.mlcafss.jccbi.gov/...
 
Update a link
 
Copyright © AirNav, LLC. All rights reserved. Privacy Policy  Contact